Time;durP1;ratioP1;P1;durP2;ratioP2;P2;SDS_P1;SDS_P2;PMS_P1;PMS_P2;Temp;Humidity;BMP_temperature;BMP_pressure;BME280_temperature;BME280_humidity;BME280_pressure;Samples;Min_cycle;Max_cycle;Signal;HPM_P1;HPM_P2
2022/07/17 00:02:02;;;;;;;;;;;;;;;16.64;49.87;102197.88;5060752;28;20176;-54
2022/07/17 00:04:27;;;;;;;;;;;;;;;16.63;50.11;102187.34;5061227;28;19946;-55
2022/07/17 00:06:53;;;;;;;;;;;;;;;16.60;50.09;102193.69;5071514;28;19927;-58
2022/07/17 00:09:18;;;;;;;;;;;;;;;16.61;50.12;102203.38;5068640;28;19920;-55
2022/07/17 00:11:43;;;;;;;;;;;;;;;16.62;50.23;102199.75;5069879;28;19985;-56
2022/07/17 00:14:09;;;;;;;;;;;;;;;16.61;50.37;102203.38;5074276;28;19952;-56
2022/07/17 00:16:34;;;;;;;;;;;;;;;16.58;50.30;102203.53;5059588;28;19981;-56
2022/07/17 00:18:59;;;;;;;;;;;;;;;16.55;50.38;102206.41;5068646;28;19917;-55
2022/07/17 00:21:25;;;;;;;;;;;;;;;16.48;50.55;102200.59;5059272;28;19932;-55
2022/07/17 00:23:51;;;;;;;;;;;;;;;16.46;50.71;102206.00;5067420;28;20379;-55
2022/07/17 00:26:16;;;;;;;;;;;;;;;16.46;50.66;102208.66;5073711;28;19938;-56
2022/07/17 00:28:41;;;;;;;;;;;;;;;16.45;50.62;102198.13;5058835;28;19923;-59
2022/07/17 00:31:07;;;;;;;;;;;;;;;16.44;50.55;102202.56;5060738;28;19947;-56
2022/07/17 00:33:32;;;;;;;;;;;;;;;16.41;50.67;102200.09;5061950;28;20392;-55
2022/07/17 00:35:57;;;;;;;;;;;;;;;16.40;50.76;102203.72;5071019;28;20291;-56
2022/07/17 00:38:22;;;;;;;;;;;;;;;16.37;50.77;102200.38;5061241;28;20006;-54
2022/07/17 00:40:48;;;;;;;;;;;;;;;16.34;50.85;102204.06;5062341;28;20010;-56
2022/07/17 00:43:13;;;;;;;;;;;;;;;16.32;50.71;102200.66;5058329;28;21408;-56
2022/07/17 00:45:38;;;;;;;;;;;;;;;16.28;50.65;102199.09;5061815;28;19982;-55
2022/07/17 00:48:05;;;;;;;;;;;;;;;16.22;50.71;102196.81;5061103;28;19940;-55
2022/07/17 00:50:41;;;;;;;;;;;;;;;16.18;50.81;102204.13;5066746;28;19927;-55
2022/07/17 00:53:07;;;;;;;;;;;;;;;16.13;50.93;102198.22;5058314;28;19916;-57
2022/07/17 00:55:32;;;;;;;;;;;;;;;16.08;50.82;102201.16;5059029;28;20471;-56
2022/07/17 00:58:00;;;;;;;;;;;;;;;16.02;50.85;102193.53;5061298;28;19921;-55
2022/07/17 01:00:25;;;;;;;;;;;;;;;15.96;51.05;102201.81;5056565;28;20003;-56
2022/07/17 01:02:52;;;;;;;;;;;;;;;15.93;51.08;102205.53;5067801;28;20019;-56
2022/07/17 01:05:18;;;;;;;;;;;;;;;15.93;51.12;102210.00;5064266;28;19928;-55
2022/07/17 01:07:44;;;;;;;;;;;;;;;15.93;51.23;102208.19;5061248;28;19936;-55
2022/07/17 01:10:10;;;;;;;;;;;;;;;15.92;51.01;102208.28;5060710;28;19928;-57
2022/07/17 01:12:35;;;;;;;;;;;;;;;15.91;50.94;102206.56;5066896;28;19928;-54
2022/07/17 01:15:01;;;;;;;;;;;;;;;15.89;51.01;102206.63;5061118;28;19940;-55
2022/07/17 01:17:26;;;;;;;;;;;;;;;15.87;50.91;102207.69;5061454;28;19924;-55
2022/07/17 01:19:52;;;;;;;;;;;;;;;15.87;50.89;102210.34;5061473;28;19943;-55
2022/07/17 01:22:18;;;;;;;;;;;;;;;15.89;50.86;102203.97;5067886;28;19925;-56
2022/07/17 01:24:43;;;;;;;;;;;;;;;15.87;50.91;102205.03;5070010;28;19928;-55
2022/07/17 01:27:09;;;;;;;;;;;;;;;15.88;50.87;102206.72;5056849;28;20302;-54
2022/07/17 01:29:38;;;;;;;;;;;;;;;15.87;50.86;102212.97;5059921;28;19916;-55
2022/07/17 01:32:03;;;;;;;;;;;;;;;15.85;50.87;102208.63;5054079;28;19920;-53
2022/07/17 01:34:29;;;;;;;;;;;;;;;15.84;50.96;102206.88;5057747;28;19932;-55
2022/07/17 01:36:54;;;;;;;;;;;;;;;15.84;51.00;102206.88;5066383;28;20465;-56
2022/07/17 01:39:52;;;;;;;;;;;;;;;15.86;51.04;102209.50;5060974;28;20466;-58
2022/07/17 01:42:04;;;;;;;;;;;;;;;15.86;51.02;102201.53;5062887;28;19974;-55
2022/07/17 01:44:30;;;;;;;;;;;;;;;15.85;51.04;102195.34;5062422;28;19928;-56
2022/07/17 01:46:55;;;;;;;;;;;;;;;15.82;51.02;102195.47;5060952;28;20346;-56
2022/07/17 01:49:20;;;;;;;;;;;;;;;15.79;51.08;102202.78;5065816;28;19917;-56
2022/07/17 01:51:46;;;;;;;;;;;;;;;15.77;51.16;102200.22;5054061;28;19921;-57
2022/07/17 01:54:11;;;;;;;;;;;;;;;15.74;51.14;102199.50;5067719;28;19928;-55
2022/07/17 01:56:36;;;;;;;;;;;;;;;15.69;51.28;102202.44;5060702;28;19927;-55
2022/07/17 01:59:02;;;;;;;;;;;;;;;15.66;51.43;102191.97;5053865;28;20043;-55
2022/07/17 02:01:28;;;;;;;;;;;;;;;15.64;51.37;102188.59;5058595;28;19947;-57
2022/07/17 02:03:53;;;;;;;;;;;;;;;15.63;51.39;102192.19;5067508;28;20816;-56
2022/07/17 02:06:18;;;;;;;;;;;;;;;15.62;51.46;102190.47;5053254;28;20016;-55
2022/07/17 02:08:44;;;;;;;;;;;;;;;15.60;51.47;102192.34;5061427;28;20272;-55
2022/07/17 02:11:09;;;;;;;;;;;;;;;15.59;51.46;102183.50;5056944;28;19928;-55
2022/07/17 02:13:34;;;;;;;;;;;;;;;15.55;51.48;102185.50;5060703;28;20362;-56
2022/07/17 02:16:00;;;;;;;;;;;;;;;15.52;51.59;102185.66;5058418;28;19921;-55
2022/07/17 02:18:25;;;;;;;;;;;;;;;15.52;51.58;102180.34;5065551;28;19924;-57
2022/07/17 02:20:50;;;;;;;;;;;;;;;15.51;51.71;102173.34;5065134;28;19923;-55
2022/07/17 02:23:16;;;;;;;;;;;;;;;15.49;51.82;102179.69;5057706;28;20016;-56
2022/07/17 02:25:41;;;;;;;;;;;;;;;15.45;51.89;102175.47;5059930;28;19924;-55
2022/07/17 02:28:06;;;;;;;;;;;;;;;15.41;52.06;102182.75;5058692;28;19955;-54
2022/07/17 02:30:31;;;;;;;;;;;;;;;15.39;52.03;102179.31;5051541;28;19920;-55
2022/07/17 02:32:57;;;;;;;;;;;;;;;15.35;52.05;102169.84;5063490;28;19924;-56
2022/07/17 02:35:22;;;;;;;;;;;;;;;15.32;52.22;102175.31;5056468;28;19928;-56
2022/07/17 02:37:47;;;;;;;;;;;;;;;15.29;52.25;102167.53;5057775;28;19928;-55
2022/07/17 02:40:13;;;;;;;;;;;;;;;15.26;52.29;102178.28;5056360;28;20391;-55
2022/07/17 02:42:38;;;;;;;;;;;;;;;15.20;52.38;102175.03;5059377;28;19952;-56
2022/07/17 02:45:06;;;;;;;;;;;;;;;15.16;52.42;102177.94;5063701;28;19927;-56
2022/07/17 02:47:32;;;;;;;;;;;;;;;15.09;52.58;102180.06;5056596;28;19920;-55
2022/07/17 02:50:01;;;;;;;;;;;;;;;15.04;52.64;102185.63;5061528;28;19924;-56
2022/07/17 02:52:26;;;;;;;;;;;;;;;15.02;52.54;102184.84;5052177;28;19997;-55
2022/07/17 02:54:51;;;;;;;;;;;;;;;15.00;52.52;102185.88;5063815;28;20393;-55
2022/07/17 02:57:18;;;;;;;;;;;;;;;14.96;52.53;102197.56;5058488;28;20014;-55
2022/07/17 02:59:43;;;;;;;;;;;;;;;14.90;52.71;102196.94;5066292;28;19913;-56
2022/07/17 03:02:09;;;;;;;;;;;;;;;14.84;52.62;102197.28;5064779;28;19923;-55
2022/07/17 03:04:34;;;;;;;;;;;;;;;14.78;52.79;102197.59;5056489;28;19925;-56
2022/07/17 03:06:59;;;;;;;;;;;;;;;14.73;52.88;102199.66;5058213;28;19981;-56
2022/07/17 03:09:25;;;;;;;;;;;;;;;14.67;53.00;102195.47;5064644;28;19923;-57
2022/07/17 03:11:50;;;;;;;;;;;;;;;14.63;52.95;102197.44;5053934;28;19925;-56
2022/07/17 03:14:16;;;;;;;;;;;;;;;14.53;53.17;102204.16;5054074;28;20383;-56
2022/07/17 03:16:41;;;;;;;;;;;;;;;14.44;53.27;102196.69;5060110;28;21031;-58
2022/07/17 03:19:06;;;;;;;;;;;;;;;14.36;53.57;102199.72;5056984;28;19970;-56
2022/07/17 03:21:32;;;;;;;;;;;;;;;14.35;53.49;102199.78;5058829;28;19928;-55
2022/07/17 03:23:57;;;;;;;;;;;;;;;14.37;53.63;102205.84;5060156;28;20387;-55
2022/07/17 03:26:22;;;;;;;;;;;;;;;14.43;53.32;102211.69;5061824;28;19970;-55
2022/07/17 03:28:47;;;;;;;;;;;;;;;14.44;53.47;102207.28;5072009;28;19970;-55
2022/07/17 03:31:13;;;;;;;;;;;;;;;14.39;53.58;102219.88;5056001;28;19923;-55
2022/07/17 03:33:38;;;;;;;;;;;;;;;14.38;53.58;102220.81;5053497;28;19921;-56
2022/07/17 03:36:03;;;;;;;;;;;;;;;14.39;53.45;102215.44;5066326;28;19921;-59
2022/07/17 03:38:29;;;;;;;;;;;;;;;14.41;53.59;102218.03;5056973;28;20006;-55
2022/07/17 03:40:54;;;;;;;;;;;;;;;14.44;53.56;102215.22;5058974;28;19963;-56
2022/07/17 03:43:19;;;;;;;;;;;;;;;14.48;53.54;102222.06;5059328;28;20585;-56
2022/07/17 03:45:45;;;;;;;;;;;;;;;14.48;53.51;102224.69;5064802;28;19925;-55
2022/07/17 03:48:10;;;;;;;;;;;;;;;14.48;53.62;102233.53;5064106;28;19924;-55
2022/07/17 03:50:35;;;;;;;;;;;;;;;14.51;53.45;102242.25;5064066;28;19974;-56
2022/07/17 03:53:01;;;;;;;;;;;;;;;14.53;53.48;102243.88;5067205;28;19972;-56
2022/07/17 03:55:26;;;;;;;;;;;;;;;14.55;53.43;102251.72;5055451;28;19921;-55
2022/07/17 03:57:51;;;;;;;;;;;;;;;14.56;53.45;102254.31;5065982;28;19920;-56
2022/07/17 04:00:17;;;;;;;;;;;;;;;14.56;53.68;102254.31;5060840;28;19936;-55
2022/07/17 04:02:43;;;;;;;;;;;;;;;14.57;53.51;102256.03;5064825;28;19921;-55
2022/07/17 04:05:09;;;;;;;;;;;;;;;14.60;53.70;102260.31;5067305;28;19920;-55
2022/07/17 04:07:38;;;;;;;;;;;;;;;14.63;53.43;102260.16;5061880;28;19928;-55
2022/07/17 04:10:04;;;;;;;;;;;;;;;14.62;53.52;102248.69;5067415;28;20384;-55
2022/07/17 04:12:29;;;;;;;;;;;;;;;14.66;53.37;102260.00;5057552;28;19967;-55
2022/07/17 04:14:55;;;;;;;;;;;;;;;14.67;53.23;102260.84;5053339;28;20291;-56
2022/07/17 04:17:20;;;;;;;;;;;;;;;14.61;53.37;102257.56;5056697;28;19920;-56
2022/07/17 04:19:45;;;;;;;;;;;;;;;14.60;53.67;102260.31;5061536;28;19982;-56
2022/07/17 04:22:11;;;;;;;;;;;;;;;14.58;53.84;102255.09;5069509;28;20015;-58
2022/07/17 04:24:36;;;;;;;;;;;;;;;14.61;53.77;102264.69;5062436;28;20038;-56
2022/07/17 04:27:01;;;;;;;;;;;;;;;14.59;53.77;102259.47;5065403;28;20718;-57
2022/07/17 04:29:27;;;;;;;;;;;;;;;14.60;53.99;102269.09;5061694;28;20387;-55
2022/07/17 04:31:52;;;;;;;;;;;;;;;14.64;53.77;102273.31;5060012;28;19920;-55
2022/07/17 04:34:17;;;;;;;;;;;;;;;14.66;53.79;102280.34;5071266;28;20732;-56
2022/07/17 04:36:43;;;;;;;;;;;;;;;14.69;53.63;102280.22;5059559;28;19927;-57
2022/07/17 04:39:08;;;;;;;;;;;;;;;14.70;53.64;102282.78;5059871;28;19928;-56
2022/07/17 04:41:33;;;;;;;;;;;;;;;14.73;53.60;102289.72;5056600;28;19920;-56
2022/07/17 04:43:59;;;;;;;;;;;;;;;14.71;53.63;102288.94;5066147;28;20023;-56
2022/07/17 04:46:24;;;;;;;;;;;;;;;14.71;53.74;102297.75;5065481;28;21887;-58
2022/07/17 04:48:49;;;;;;;;;;;;;;;14.75;53.70;102301.09;5067314;28;20374;-56
2022/07/17 04:51:15;;;;;;;;;;;;;;;14.81;53.73;102292.00;5064778;28;19942;-55
2022/07/17 04:53:40;;;;;;;;;;;;;;;14.84;53.76;102298.00;5058171;28;19917;-55
2022/07/17 04:56:05;;;;;;;;;;;;;;;14.80;53.80;102293.78;5051588;28;19928;-55
2022/07/17 04:58:31;;;;;;;;;;;;;;;14.77;53.91;102305.41;5058105;28;20331;-55
2022/07/17 05:00:56;;;;;;;;;;;;;;;14.75;54.25;102295.78;5056647;28;19928;-56
2022/07/17 05:03:21;;;;;;;;;;;;;;;14.73;54.34;102306.47;5066044;28;19932;-55
2022/07/17 05:05:46;;;;;;;;;;;;;;;14.76;54.35;102306.31;5065717;28;19944;-55
2022/07/17 05:08:12;;;;;;;;;;;;;;;14.77;54.37;102305.41;5070599;28;19920;-55
2022/07/17 05:10:37;;;;;;;;;;;;;;;14.79;54.50;102321.19;5059808;28;20446;-55
2022/07/17 05:13:03;;;;;;;;;;;;;;;14.75;54.71;102309.91;5061826;28;20041;-57
2022/07/17 05:15:28;;;;;;;;;;;;;;;14.77;54.60;102321.28;5060795;28;19946;-56
2022/07/17 05:17:53;;;;;;;;;;;;;;;14.78;54.79;102327.44;5067794;28;19924;-58
2022/07/17 05:20:19;;;;;;;;;;;;;;;14.72;55.10;102318.00;5074577;28;19924;-55
2022/07/17 05:22:44;;;;;;;;;;;;;;;14.70;55.29;102313.72;5069935;28;20286;-55
2022/07/17 05:25:09;;;;;;;;;;;;;;;14.73;55.21;102314.44;5064702;28;19970;-54
2022/07/17 05:27:35;;;;;;;;;;;;;;;14.76;55.22;102318.69;5067450;28;19977;-55
2022/07/17 05:30:00;;;;;;;;;;;;;;;14.74;55.72;102310.00;5059154;28;19925;-55
2022/07/17 05:32:25;;;;;;;;;;;;;;;14.76;55.52;102319.56;5068625;28;19969;-55
2022/07/17 05:34:50;;;;;;;;;;;;;;;14.78;55.60;102316.84;5064436;28;19932;-55
2022/07/17 05:37:16;;;;;;;;;;;;;;;14.81;55.40;102316.69;5060037;28;19935;-55
2022/07/17 05:39:41;;;;;;;;;;;;;;;14.85;55.40;102310.31;5067919;28;19920;-55
2022/07/17 05:42:06;;;;;;;;;;;;;;;14.91;55.46;102312.63;5063415;28;19959;-56
2022/07/17 05:44:32;;;;;;;;;;;;;;;14.91;55.41;102317.91;5059324;28;19916;-55
2022/07/17 05:46:57;;;;;;;;;;;;;;;14.89;55.61;102318.94;5068893;28;21007;-55
2022/07/17 05:49:22;;;;;;;;;;;;;;;14.89;55.48;102317.16;5061515;28;19947;-56
2022/07/17 05:51:48;;;;;;;;;;;;;;;14.86;55.82;102319.97;5055383;28;19933;-56
2022/07/17 05:54:13;;;;;;;;;;;;;;;14.82;56.00;102321.06;5062212;28;19924;-55
2022/07/17 05:56:38;;;;;;;;;;;;;;;14.83;56.11;102319.25;5062610;28;19931;-56
2022/07/17 05:59:03;;;;;;;;;;;;;;;14.90;55.98;102320.66;5063743;28;19921;-54
2022/07/17 06:01:29;;;;;;;;;;;;;;;14.96;55.97;102314.19;5066035;28;19976;-54
2022/07/17 06:03:54;;;;;;;;;;;;;;;15.02;55.79;102317.38;5064013;28;19925;-55
2022/07/17 06:06:21;;;;;;;;;;;;;;;15.09;55.66;102315.25;5059083;28;20388;-60
2022/07/17 06:08:46;;;;;;;;;;;;;;;15.20;55.59;102317.38;5061083;28;20400;-53
2022/07/17 06:11:11;;;;;;;;;;;;;;;15.31;55.26;102322.94;5055418;28;19931;-59
2022/07/17 06:13:37;;;;;;;;;;;;;;;15.38;55.13;102313.75;5062170;28;20430;-53
2022/07/17 06:16:02;;;;;;;;;;;;;;;15.44;55.16;102325.81;5050119;28;20307;-55
2022/07/17 06:18:27;;;;;;;;;;;;;;;15.50;55.07;102330.78;5059148;28;19921;-54
2022/07/17 06:20:53;;;;;;;;;;;;;;;15.54;54.84;102329.69;5060201;28;20408;-57
2022/07/17 06:23:18;;;;;;;;;;;;;;;15.58;54.94;102333.03;5066771;28;20028;-56
2022/07/17 06:25:43;;;;;;;;;;;;;;;15.64;54.81;102331.88;5059425;28;19924;-56
2022/07/17 06:28:09;;;;;;;;;;;;;;;15.72;54.76;102342.06;5054441;28;20022;-59
2022/07/17 06:30:34;;;;;;;;;;;;;;;15.76;54.60;102336.50;5056160;28;19928;-53
2022/07/17 06:32:59;;;;;;;;;;;;;;;15.84;54.41;102350.19;5059312;28;19924;-57
2022/07/17 06:35:24;;;;;;;;;;;;;;;15.89;54.28;102357.94;5060214;28;19925;-55
2022/07/17 06:37:50;;;;;;;;;;;;;;;15.90;54.17;102351.69;5072086;28;24809;-53
2022/07/17 06:40:15;;;;;;;;;;;;;;;15.94;54.20;102349.75;5060314;28;19956;-54
2022/07/17 06:42:40;;;;;;;;;;;;;;;15.99;54.03;102350.31;5057276;28;19924;-57
2022/07/17 06:45:06;;;;;;;;;;;;;;;16.04;53.94;102340.31;5062248;28;19921;-53
2022/07/17 06:47:31;;;;;;;;;;;;;;;16.13;53.89;102341.59;5057633;28;19942;-53
2022/07/17 06:49:57;;;;;;;;;;;;;;;16.19;53.69;102343.91;5049710;28;19997;-58
2022/07/17 06:52:22;;;;;;;;;;;;;;;16.27;53.53;102351.44;5053749;28;20008;-54
2022/07/17 06:54:47;;;;;;;;;;;;;;;16.33;53.32;102351.09;5053240;28;19974;-55
2022/07/17 06:57:13;;;;;;;;;;;;;;;16.37;53.34;102352.66;5056599;28;19924;-54
2022/07/17 06:59:38;;;;;;;;;;;;;;;16.42;53.29;102366.50;5055908;28;20446;-55
2022/07/17 07:02:03;;;;;;;;;;;;;;;16.45;53.01;102352.22;5061353;28;19958;-56
2022/07/17 07:04:29;;;;;;;;;;;;;;;16.50;52.88;102354.59;5055758;28;20409;-55
2022/07/17 07:06:54;;;;;;;;;;;;;;;16.52;52.73;102360.69;5051012;28;19924;-56
2022/07/17 07:09:19;;;;;;;;;;;;;;;16.53;52.55;102362.41;5053475;28;20081;-55
2022/07/17 07:11:45;;;;;;;;;;;;;;;16.53;52.40;102370.38;5048479;28;19924;-55
2022/07/17 07:14:10;;;;;;;;;;;;;;;16.55;52.65;102360.53;5052408;28;20444;-54
2022/07/17 07:16:35;;;;;;;;;;;;;;;16.61;52.39;102368.13;5059784;28;20043;-54
2022/07/17 07:19:01;;;;;;;;;;;;;;;16.70;52.42;102380.91;5066559;28;20329;-54
2022/07/17 07:21:26;;;;;;;;;;;;;;;16.78;52.15;102372.47;5055496;28;20471;-56
2022/07/17 07:23:52;;;;;;;;;;;;;;;16.85;51.94;102378.28;5051141;28;20047;-55
2022/07/17 07:26:17;;;;;;;;;;;;;;;16.90;51.63;102373.53;5044171;28;23101;-58
2022/07/17 07:28:43;;;;;;;;;;;;;;;16.92;51.61;102369.00;5046351;28;20011;-55
2022/07/17 07:31:08;;;;;;;;;;;;;;;16.98;51.62;102368.69;5054020;28;19924;-57
2022/07/17 07:33:33;;;;;;;;;;;;;;;17.03;51.45;102355.94;5058604;28;19920;-54
2022/07/17 07:35:59;;;;;;;;;;;;;;;17.09;51.43;102369.84;5061753;28;19936;-55
2022/07/17 07:38:24;;;;;;;;;;;;;;;17.12;50.92;102367.00;5050455;28;20011;-56
2022/07/17 07:40:50;;;;;;;;;;;;;;;17.10;50.51;102363.56;5057508;28;19930;-54
2022/07/17 07:43:15;;;;;;;;;;;;;;;17.06;50.52;102371.72;5050604;28;20019;-53
2022/07/17 07:45:40;;;;;;;;;;;;;;;17.08;50.54;102361.00;5046427;28;20022;-53
2022/07/17 07:48:05;;;;;;;;;;;;;;;17.13;50.53;102377.53;5053457;28;19921;-51
2022/07/17 07:50:31;;;;;;;;;;;;;;;17.16;50.27;102368.53;5051431;28;20395;-55
2022/07/17 07:52:56;;;;;;;;;;;;;;;17.16;50.22;102380.00;5053115;28;19928;-53
2022/07/17 07:55:22;;;;;;;;;;;;;;;17.16;49.99;102376.50;5057834;28;21026;-53
2022/07/17 07:57:48;;;;;;;;;;;;;;;17.18;49.84;102379.91;5054006;28;22161;-58
2022/07/17 08:00:13;;;;;;;;;;;;;;;17.16;49.95;102389.81;5041376;28;19951;-56
2022/07/17 08:02:39;;;;;;;;;;;;;;;17.14;49.66;102375.75;5042999;28;22031;-56
2022/07/17 08:05:04;;;;;;;;;;;;;;;17.14;49.92;102397.03;5045515;28;19929;-56
2022/07/17 08:07:30;;;;;;;;;;;;;;;17.13;49.78;102395.31;5053754;28;19917;-54
2022/07/17 08:09:56;;;;;;;;;;;;;;;17.13;49.88;102388.16;5062740;28;20451;-54
2022/07/17 08:12:22;;;;;;;;;;;;;;;17.18;49.89;102393.22;5063754;28;21207;-54
2022/07/17 08:15:00;;;;;;;;;;;;;;;17.25;49.91;102391.03;5057559;28;19920;-53
2022/07/17 08:17:25;;;;;;;;;;;;;;;17.33;49.73;102396.75;5069895;28;19935;-55
2022/07/17 08:19:50;;;;;;;;;;;;;;;17.36;49.26;102394.78;5062831;28;19924;-54
2022/07/17 08:22:16;;;;;;;;;;;;;;;17.35;49.19;102405.50;5063257;28;19923;-52
2022/07/17 08:24:41;;;;;;;;;;;;;;;17.32;49.13;102401.22;5062673;28;19917;-55
2022/07/17 08:27:06;;;;;;;;;;;;;;;17.32;49.01;102403.88;5062663;28;19925;-53
2022/07/17 08:29:31;;;;;;;;;;;;;;;17.33;49.25;102397.59;5062715;28;19927;-52
2022/07/17 08:31:57;;;;;;;;;;;;;;;17.35;49.23;102402.84;5063140;28;19920;-52
2022/07/17 08:34:22;;;;;;;;;;;;;;;17.37;49.15;102385.84;5059242;28;19921;-59
2022/07/17 08:36:48;;;;;;;;;;;;;;;17.46;49.16;102391.56;5068738;28;19963;-56
2022/07/17 08:39:13;;;;;;;;;;;;;;;17.53;49.12;102395.56;5061307;28;20442;-56
2022/07/17 08:41:39;;;;;;;;;;;;;;;17.61;48.73;102397.75;5058816;28;20264;-55
2022/07/17 08:44:07;;;;;;;;;;;;;;;17.63;48.62;102391.38;5065243;28;19924;-54
2022/07/17 08:46:37;;;;;;;;;;;;;;;17.66;48.59;102385.84;5067045;28;20007;-54
2022/07/17 08:49:03;;;;;;;;;;;;;;;17.71;48.69;102398.88;5061732;28;19920;-54
2022/07/17 08:51:30;;;;;;;;;;;;;;;17.77;48.50;102401.16;5060840;28;19921;-52
2022/07/17 08:53:56;;;;;;;;;;;;;;;17.81;48.43;102393.84;5065204;28;19924;-53
2022/07/17 08:56:21;;;;;;;;;;;;;;;17.83;48.17;102391.94;5064168;28;19943;-53
2022/07/17 08:58:47;;;;;;;;;;;;;;;17.88;48.36;102394.31;5069715;28;19924;-51
2022/07/17 09:01:13;;;;;;;;;;;;;;;17.96;48.25;102397.38;5062434;28;19929;-55
2022/07/17 09:03:41;;;;;;;;;;;;;;;18.04;48.04;102400.41;5046507;28;20030;-55
2022/07/17 09:06:16;;;;;;;;;;;;;;;18.13;48.07;102404.31;5059381;28;19973;-53
2022/07/17 09:08:42;;;;;;;;;;;;;;;18.22;47.98;102411.72;5062830;28;19971;-55
2022/07/17 09:11:08;;;;;;;;;;;;;;;18.25;47.62;102416.00;5062512;28;19971;-54
2022/07/17 09:13:33;;;;;;;;;;;;;;;18.21;47.45;102418.00;5057117;28;20437;-52
2022/07/17 09:16:05;;;;;;;;;;;;;;;18.17;47.72;102421.81;5062875;28;19936;-56
2022/07/17 09:18:31;;;;;;;;;;;;;;;18.17;47.59;102415.63;5066535;28;19916;-56
2022/07/17 09:20:57;;;;;;;;;;;;;;;18.15;47.45;102412.22;5064410;28;20399;-55
2022/07/17 09:23:24;;;;;;;;;;;;;;;18.13;47.59;102414.97;5064170;28;19925;-58
2022/07/17 09:25:53;;;;;;;;;;;;;;;18.11;47.50;102409.75;5062989;28;19924;-55
2022/07/17 09:28:20;;;;;;;;;;;;;;;18.10;47.72;102405.38;5050050;28;19958;-53
2022/07/17 09:30:53;;;;;;;;;;;;;;;18.14;47.60;102406.03;5054396;28;19971;-53
2022/07/17 09:33:19;;;;;;;;;;;;;;;18.17;47.88;102410.28;5058532;28;19924;-55
2022/07/17 09:35:46;;;;;;;;;;;;;;;18.24;47.51;102406.28;5060227;28;19917;-56
2022/07/17 09:38:12;;;;;;;;;;;;;;;18.31;47.43;102404.09;5058591;28;19920;-54
2022/07/17 09:43:21;;;;;;;;;;;;;;;18.38;47.42;102413.38;5039422;28;19931;-55
2022/07/17 09:45:47;;;;;;;;;;;;;;;18.35;47.21;102405.63;5058398;28;19928;-55
2022/07/17 09:48:12;;;;;;;;;;;;;;;18.32;47.22;102405.81;5048569;28;19924;-55
2022/07/17 09:50:38;;;;;;;;;;;;;;;18.35;47.40;102410.94;5045042;28;19929;-56
2022/07/17 09:53:05;;;;;;;;;;;;;;;18.37;47.53;102417.88;5054469;28;19920;-56
2022/07/17 09:55:33;;;;;;;;;;;;;;;18.39;47.52;102415.09;5047048;28;19925;-53
2022/07/17 09:58:00;;;;;;;;;;;;;;;18.39;47.10;102404.44;5051006;28;19989;-56
2022/07/17 10:00:25;;;;;;;;;;;;;;;18.40;47.30;102411.47;5060887;28;19929;-56
2022/07/17 10:02:51;;;;;;;;;;;;;;;18.39;47.27;102412.44;5060081;28;19920;-53
2022/07/17 10:05:16;;;;;;;;;;;;;;;18.40;47.28;102414.16;5060867;28;20306;-56
2022/07/17 10:07:42;;;;;;;;;;;;;;;18.40;46.91;102407.03;5050562;28;19927;-53
2022/07/17 10:10:08;;;;;;;;;;;;;;;18.38;47.06;102410.72;5036134;28;19924;-56
2022/07/17 10:12:34;;;;;;;;;;;;;;;18.39;47.22;102412.44;5058969;28;19920;-52
2022/07/17 10:14:59;;;;;;;;;;;;;;;18.41;46.97;102406.06;5061918;28;19935;-52
2022/07/17 10:17:25;;;;;;;;;;;;;;;18.44;46.72;102413.00;5055348;28;19928;-53
2022/07/17 10:19:53;;;;;;;;;;;;;;;18.46;46.73;102408.44;5052981;28;19952;-59
2022/07/17 10:22:18;;;;;;;;;;;;;;;18.43;46.39;102408.63;5053988;28;19924;-56
2022/07/17 10:24:45;;;;;;;;;;;;;;;18.42;46.67;102413.09;5053834;28;19924;-52
2022/07/17 10:27:17;;;;;;;;;;;;;;;18.43;46.74;102417.50;5034774;28;19928;-53
2022/07/17 10:29:42;;;;;;;;;;;;;;;18.45;46.71;102414.72;5045311;28;20462;-56
2022/07/17 10:32:13;;;;;;;;;;;;;;;18.50;46.57;102414.41;5052742;28;19928;-54
2022/07/17 10:35:04;;;;;;;;;;;;;;;18.53;46.87;102423.03;5069595;22;19928;-52
2022/07/17 10:37:36;;;;;;;;;;;;;;;18.59;46.55;102414.66;5037851;28;20352;-52
2022/07/17 10:40:04;;;;;;;;;;;;;;;18.58;46.35;102412.94;5051242;28;19920;-55
2022/07/17 10:42:43;;;;;;;;;;;;;;;18.57;46.70;102424.56;5054187;28;19924;-52
2022/07/17 10:45:10;;;;;;;;;;;;;;;18.60;46.54;102418.19;5036515;28;20513;-55
2022/07/17 10:47:47;;;;;;;;;;;;;;;18.63;46.53;102419.81;5035171;28;20026;-54
2022/07/17 10:50:14;;;;;;;;;;;;;;;18.64;46.58;102419.69;5035930;28;19924;-52
2022/07/17 10:52:39;;;;;;;;;;;;;;;18.66;46.68;102422.28;5036833;28;19917;-52
2022/07/17 10:55:22;;;;;;;;;;;;;;;18.65;46.48;102428.56;5029595;28;19994;-52
2022/07/17 10:57:48;;;;;;;;;;;;;;;18.67;46.62;102430.16;5020652;28;19928;-54
2022/07/17 11:00:15;;;;;;;;;;;;;;;18.70;46.26;102415.75;5026038;28;19924;-53
2022/07/17 11:02:40;;;;;;;;;;;;;;;18.73;46.34;102434.22;5029490;28;19924;-52
2022/07/17 11:05:06;;;;;;;;;;;;;;;18.77;46.22;102430.41;5023294;28;19935;-56
2022/07/17 11:07:31;;;;;;;;;;;;;;;18.76;46.11;102447.38;5031631;28;20039;-55
2022/07/17 11:09:57;;;;;;;;;;;;;;;18.78;46.35;102429.47;5037102;28;19968;-58
2022/07/17 11:12:34;;;;;;;;;;;;;;;18.80;46.34;102440.00;5028455;28;19921;-55
2022/07/17 11:15:02;;;;;;;;;;;;;;;18.79;46.29;102411.63;5033463;28;20384;-60
2022/07/17 11:17:28;;;;;;;;;;;;;;;18.83;46.41;102429.16;5034256;28;19925;-52
2022/07/17 11:19:53;;;;;;;;;;;;;;;18.88;46.19;102417.22;5036601;28;19925;-55
2022/07/17 11:22:21;;;;;;;;;;;;;;;18.97;46.25;102423.78;5021018;28;19928;-54
2022/07/17 11:24:47;;;;;;;;;;;;;;;19.07;46.14;102415.16;5029276;28;19925;-54
2022/07/17 11:27:19;;;;;;;;;;;;;;;19.14;46.09;102438.63;5031542;28;19936;-52
2022/07/17 11:29:45;;;;;;;;;;;;;;;19.18;45.88;102432.16;5035639;28;20441;-53
2022/07/17 11:32:10;;;;;;;;;;;;;;;19.11;45.93;102420.19;5031599;28;19920;-53
2022/07/17 11:34:35;;;;;;;;;;;;;;;19.08;46.32;102432.88;5030360;28;20398;-53
2022/07/17 11:37:05;;;;;;;;;;;;;;;19.01;46.22;102427.09;5039204;28;19921;-54
2022/07/17 11:39:40;;;;;;;;;;;;;;;18.97;46.44;102431.78;5034768;28;19974;-52
2022/07/17 11:42:10;;;;;;;;;;;;;;;18.93;46.64;102432.06;5031483;28;19933;-52
2022/07/17 11:44:35;;;;;;;;;;;;;;;18.91;46.89;102431.31;5030235;28;19925;-52
2022/07/17 11:47:01;;;;;;;;;;;;;;;18.96;46.78;102423.91;5028124;28;20790;-56
2022/07/17 11:49:30;;;;;;;;;;;;;;;19.02;46.65;102424.34;5037888;28;20004;-52
2022/07/17 11:52:06;;;;;;;;;;;;;;;19.12;46.53;102424.56;5040953;28;20007;-52
2022/07/17 11:54:31;;;;;;;;;;;;;;;19.22;46.57;102414.09;5042389;28;19997;-53
2022/07/17 11:57:02;;;;;;;;;;;;;;;19.30;46.36;102421.59;5043627;28;20849;-57
2022/07/17 11:59:31;;;;;;;;;;;;;;;19.36;45.91;102425.69;5054255;28;19982;-56
2022/07/17 12:02:06;;;;;;;;;;;;;;;19.40;45.84;102412.00;5043216;28;20013;-56
2022/07/17 12:04:31;;;;;;;;;;;;;;;19.47;45.69;102413.28;5038863;28;19921;-54
2022/07/17 12:07:00;;;;;;;;;;;;;;;19.57;45.96;102407.31;5043785;28;19929;-57
2022/07/17 12:09:33;;;;;;;;;;;;;;;19.71;45.77;102411.66;5051109;28;19936;-53
2022/07/17 12:11:59;;;;;;;;;;;;;;;19.85;44.88;102405.38;5040950;28;19921;-53
2022/07/17 12:14:24;;;;;;;;;;;;;;;19.94;44.17;102415.41;5048272;28;19922;-54
2022/07/17 12:16:50;;;;;;;;;;;;;;;19.97;44.27;102412.53;5042772;28;20016;-52
2022/07/17 12:19:18;;;;;;;;;;;;;;;19.98;43.82;102416.03;5043632;28;20043;-56
2022/07/17 12:21:46;;;;;;;;;;;;;;;19.96;43.38;102402.81;5041074;28;19987;-51
2022/07/17 12:24:18;;;;;;;;;;;;;;;19.98;43.24;102405.34;5051219;28;20015;-53
2022/07/17 12:26:43;;;;;;;;;;;;;;;20.02;43.30;102405.06;5039980;28;19968;-52
2022/07/17 12:29:08;;;;;;;;;;;;;;;20.06;43.28;102403.84;5046763;28;20374;-55
2022/07/17 12:31:34;;;;;;;;;;;;;;;20.10;42.63;102394.66;5029013;28;19929;-51
2022/07/17 12:33:59;;;;;;;;;;;;;;;20.14;42.71;102402.44;5035839;28;19921;-53